createdAt,value
2023-05-05T00:00:12.134Z,66.70
2023-05-05T00:01:12.192Z,69.31
2023-05-05T00:02:12.275Z,68.70
2023-05-05T00:03:12.325Z,68.29
2023-05-05T00:04:12.370Z,69.80
2023-05-05T00:05:12.400Z,69.47
2023-05-05T00:06:12.444Z,71.82
2023-05-05T00:07:12.508Z,70.32
2023-05-05T00:08:12.557Z,71.33
2023-05-05T00:09:12.640Z,71.40
2023-05-05T00:10:12.672Z,72.44
2023-05-05T00:11:12.742Z,72.07
2023-05-05T00:12:12.755Z,73.43
2023-05-05T00:13:12.914Z,75.55
2023-05-05T00:14:12.867Z,76.20
2023-05-05T00:15:12.940Z,75.16
2023-05-05T00:16:12.996Z,76.75
2023-05-05T00:17:13.125Z,78.85
2023-05-05T00:18:13.087Z,78.47
2023-05-05T00:19:13.131Z,80.26
2023-05-05T00:20:13.169Z,77.74
2023-05-05T00:21:13.231Z,77.92
2023-05-05T00:22:13.282Z,76.43
2023-05-05T00:23:13.314Z,75.25
2023-05-05T00:24:13.362Z,75.39
2023-05-05T00:25:13.434Z,73.60
2023-05-05T00:26:13.497Z,73.42
2023-05-05T00:27:13.521Z,74.16
2023-05-05T00:28:13.621Z,70.76
2023-05-05T00:29:13.642Z,72.03
2023-05-05T00:30:13.720Z,74.17
2023-05-05T00:31:13.791Z,73.19
2023-05-05T00:32:13.840Z,72.32
2023-05-05T00:33:13.849Z,75.52
2023-05-05T00:34:13.895Z,72.35
2023-05-05T00:35:13.958Z,74.34
2023-05-05T00:36:14.034Z,72.36
2023-05-05T00:37:14.116Z,72.14
2023-05-05T00:38:14.174Z,69.87
2023-05-05T00:39:14.196Z,70.60
2023-05-05T00:40:14.244Z,69.07
2023-05-05T00:41:14.294Z,68.55
2023-05-05T00:42:14.365Z,69.64
2023-05-05T00:43:14.422Z,66.61
2023-05-05T00:44:14.468Z,66.39
2023-05-05T00:45:14.535Z,67.79
2023-05-05T00:46:14.635Z,67.30
2023-05-05T00:47:14.632Z,68.39
2023-05-05T00:48:14.724Z,69.16
2023-05-05T00:49:14.856Z,66.22
2023-05-05T00:50:14.815Z,67.54
2023-05-05T00:51:14.889Z,67.29
2023-05-05T00:52:14.953Z,68.15
2023-05-05T00:53:15.007Z,69.12
2023-05-05T00:54:15.068Z,67.20
2023-05-05T00:55:15.164Z,66.95
2023-05-05T00:56:15.224Z,67.62
2023-05-05T00:57:15.310Z,69.89
2023-05-05T00:58:15.325Z,69.78
2023-05-05T00:59:15.396Z,69.46
2023-05-05T01:00:15.439Z,67.90
2023-05-05T01:01:15.651Z,73.49
2023-05-05T01:02:15.544Z,71.99
2023-05-05T01:03:15.777Z,76.87
2023-05-05T01:04:15.702Z,72.81
2023-05-05T01:05:15.759Z,72.20
2023-05-05T01:06:15.823Z,73.98
2023-05-05T01:07:15.891Z,77.00
2023-05-05T01:08:16.804Z,72.75
2023-05-05T01:09:16.030Z,73.94
2023-05-05T01:10:20.427Z,73.72
2023-05-05T01:11:16.061Z,73.85
2023-05-05T01:12:16.049Z,73.92
2023-05-05T01:13:16.069Z,73.30
2023-05-05T01:14:16.052Z,71.12
2023-05-05T01:15:16.013Z,70.69
2023-05-05T01:16:16.034Z,69.55
2023-05-05T01:17:16.008Z,69.78
2023-05-05T01:18:15.994Z,72.77
2023-05-05T01:19:15.975Z,71.43
2023-05-05T01:20:15.988Z,70.05
2023-05-05T01:21:16.020Z,71.36
2023-05-05T01:22:15.979Z,68.75
2023-05-05T01:23:16.055Z,68.39
2023-05-05T01:24:16.099Z,69.55
2023-05-05T01:25:16.165Z,69.71
2023-05-05T01:26:16.209Z,69.47
2023-05-05T01:27:16.287Z,69.86
2023-05-05T01:28:16.370Z,68.18
2023-05-05T01:29:16.409Z,68.48
2023-05-05T01:30:16.449Z,72.05
2023-05-05T01:31:16.536Z,69.93
2023-05-05T01:32:16.592Z,69.45
2023-05-05T01:33:16.617Z,71.44
2023-05-05T01:34:16.695Z,70.76
2023-05-05T01:35:16.753Z,67.64
2023-05-05T01:36:16.776Z,69.39
2023-05-05T01:37:16.865Z,69.60
2023-05-05T01:38:16.926Z,70.04
2023-05-05T01:39:16.998Z,69.67
2023-05-05T01:40:17.008Z,70.25
2023-05-05T01:41:17.057Z,70.34
2023-05-05T01:42:17.132Z,70.27
2023-05-05T01:43:17.163Z,67.76
2023-05-05T01:44:17.256Z,68.91
2023-05-05T01:45:17.318Z,68.12
2023-05-05T01:46:17.405Z,71.52
2023-05-05T01:47:17.402Z,67.04
2023-05-05T01:48:17.399Z,68.55
2023-05-05T01:49:17.489Z,68.14
2023-05-05T01:50:17.506Z,65.57
2023-05-05T01:51:17.597Z,66.70
2023-05-05T01:52:17.656Z,66.56
2023-05-05T01:53:17.687Z,66.54
2023-05-05T01:54:17.731Z,64.73
2023-05-05T01:55:17.732Z,65.28
2023-05-05T01:56:17.774Z,68.50
2023-05-05T01:57:17.781Z,65.59
2023-05-05T01:58:17.832Z,66.39
2023-05-05T01:59:17.879Z,67.89
2023-05-05T02:00:17.872Z,63.05
2023-05-05T02:01:17.905Z,67.19
2023-05-05T02:02:17.927Z,66.84
2023-05-05T02:03:17.976Z,69.53
2023-05-05T02:04:17.934Z,68.60
2023-05-05T02:05:17.960Z,71.37
2023-05-05T02:06:17.999Z,71.87
2023-05-05T02:07:17.995Z,71.29
2023-05-05T02:08:18.073Z,70.36
2023-05-05T02:09:18.067Z,70.22
2023-05-05T02:10:18.149Z,72.06
2023-05-05T02:11:18.165Z,69.17
2023-05-05T02:12:18.226Z,69.56
2023-05-05T02:13:18.363Z,70.02
2023-05-05T02:14:18.239Z,68.23
2023-05-05T02:15:18.250Z,66.31
2023-05-05T02:16:18.433Z,67.69
2023-05-05T02:17:18.276Z,68.05
2023-05-05T02:18:18.261Z,66.68
2023-05-05T02:19:18.272Z,70.44
2023-05-05T02:20:18.285Z,71.81
2023-05-05T02:21:18.308Z,67.14
2023-05-05T02:22:18.301Z,70.00
2023-05-05T02:23:18.263Z,71.78
2023-05-05T02:24:18.411Z,70.97
2023-05-05T02:25:18.311Z,73.67
2023-05-05T02:26:18.319Z,71.42
2023-05-05T02:27:18.341Z,75.36
2023-05-05T02:28:18.290Z,75.45
2023-05-05T02:29:18.314Z,73.42
2023-05-05T02:30:18.331Z,75.75
2023-05-05T02:31:18.391Z,73.96
2023-05-05T02:32:18.337Z,70.74
2023-05-05T02:33:18.317Z,74.52
2023-05-05T02:34:18.311Z,73.28
2023-05-05T02:35:18.320Z,74.60
2023-05-05T02:36:18.310Z,75.84
2023-05-05T02:37:18.332Z,75.87
2023-05-05T02:38:18.336Z,75.15
2023-05-05T02:39:18.316Z,74.74
2023-05-05T02:40:18.297Z,75.32
2023-05-05T02:41:18.305Z,77.19
2023-05-05T02:42:18.289Z,78.05
2023-05-05T02:43:18.396Z,78.50
2023-05-05T02:44:18.311Z,79.64
2023-05-05T02:45:18.309Z,80.43
2023-05-05T02:46:18.352Z,80.07
2023-05-05T02:47:18.315Z,82.12
2023-05-05T02:48:18.317Z,81.60
2023-05-05T02:49:18.272Z,79.44
2023-05-05T02:50:18.320Z,78.27
2023-05-05T02:51:18.281Z,77.35
2023-05-05T02:52:18.288Z,76.72
2023-05-05T02:53:18.287Z,78.29
2023-05-05T02:54:18.278Z,80.07
2023-05-05T02:55:18.278Z,79.83
2023-05-05T02:56:18.246Z,79.84
2023-05-05T02:57:18.301Z,78.12
2023-05-05T02:58:18.267Z,78.87
2023-05-05T02:59:18.279Z,76.65
2023-05-05T03:00:18.275Z,74.91
2023-05-05T03:01:18.346Z,77.68
2023-05-05T03:02:18.286Z,78.33
2023-05-05T03:03:18.408Z,79.53
2023-05-05T03:04:18.282Z,79.79
2023-05-05T03:05:18.330Z,80.81
2023-05-05T03:06:18.301Z,80.96
2023-05-05T03:07:18.322Z,81.44
2023-05-05T03:08:18.321Z,82.24
2023-05-05T03:09:18.336Z,83.48
2023-05-05T03:10:18.297Z,82.73
2023-05-05T03:11:18.305Z,82.78
2023-05-05T03:12:18.319Z,83.63
2023-05-05T03:13:18.282Z,84.46
2023-05-05T03:14:18.330Z,83.03
2023-05-05T03:15:18.303Z,85.60
2023-05-05T03:16:18.332Z,85.69
2023-05-05T03:17:18.302Z,85.64
2023-05-05T03:18:18.290Z,86.15
2023-05-05T03:19:18.271Z,84.42
2023-05-05T03:20:18.270Z,85.84
2023-05-05T03:21:18.306Z,83.85
2023-05-05T03:22:18.294Z,86.06
2023-05-05T03:23:18.327Z,84.20
2023-05-05T03:24:18.298Z,86.20
2023-05-05T03:25:18.308Z,86.14
2023-05-05T03:26:18.292Z,84.99
2023-05-05T03:27:18.308Z,87.40
2023-05-05T03:28:18.316Z,88.60
2023-05-05T03:29:18.282Z,87.66
2023-05-05T03:30:18.294Z,86.97
2023-05-05T03:31:18.398Z,87.14
2023-05-05T03:32:18.309Z,87.82
2023-05-05T03:33:18.267Z,87.10
2023-05-05T03:34:18.246Z,85.49
2023-05-05T03:35:18.257Z,82.83
2023-05-05T03:36:18.262Z,83.40
2023-05-05T03:37:18.230Z,83.76
2023-05-05T03:38:18.276Z,83.00
2023-05-05T03:39:18.295Z,85.20
2023-05-05T03:40:18.299Z,85.82
2023-05-05T03:41:18.370Z,84.11
2023-05-05T03:42:18.262Z,86.35
2023-05-05T03:43:18.331Z,86.51
2023-05-05T03:44:18.283Z,88.45
2023-05-05T03:45:18.285Z,87.87
2023-05-05T03:46:18.446Z,86.92
2023-05-05T03:47:18.299Z,86.09
2023-05-05T03:48:18.324Z,87.02
2023-05-05T03:49:18.348Z,86.56
2023-05-05T03:50:18.361Z,87.34
2023-05-05T03:51:18.356Z,87.95
2023-05-05T03:52:18.403Z,88.33
2023-05-05T03:53:18.420Z,87.90
2023-05-05T03:54:18.411Z,89.34
2023-05-05T03:55:18.433Z,89.16
2023-05-05T03:56:18.464Z,89.51
2023-05-05T03:57:18.479Z,90.01
2023-05-05T03:58:18.483Z,90.52
2023-05-05T03:59:18.494Z,90.58
2023-05-05T04:00:18.500Z,91.35
2023-05-05T04:01:18.500Z,92.36
2023-05-05T04:02:18.937Z,94.37
2023-05-05T04:03:18.644Z,93.12
2023-05-05T04:04:18.652Z,93.35
2023-05-05T04:05:18.563Z,93.78
2023-05-05T04:06:18.638Z,94.29
2023-05-05T04:07:18.634Z,93.80
2023-05-05T04:08:18.644Z,93.27
2023-05-05T04:09:18.677Z,93.09
2023-05-05T04:10:18.698Z,92.67
2023-05-05T04:11:18.669Z,92.99
2023-05-05T04:12:18.764Z,93.35
2023-05-05T04:13:18.755Z,93.08
2023-05-05T04:14:18.724Z,93.71
2023-05-05T04:15:18.736Z,94.07
2023-05-05T04:16:18.784Z,95.31
2023-05-05T04:17:18.740Z,94.54
2023-05-05T04:18:18.727Z,94.39
2023-05-05T04:19:18.781Z,93.57
2023-05-05T04:20:18.788Z,93.09
2023-05-05T04:21:18.792Z,94.76
2023-05-05T04:22:18.781Z,95.09
2023-05-05T04:23:18.812Z,94.42
2023-05-05T04:24:18.793Z,96.04
2023-05-05T04:25:18.821Z,97.22
2023-05-05T04:26:18.796Z,97.12
2023-05-05T04:27:18.845Z,96.95
2023-05-05T04:28:20.951Z,96.29
2023-05-05T04:29:18.797Z,98.34
2023-05-05T04:30:18.810Z,98.05
2023-05-05T04:31:18.859Z,97.61
2023-05-05T04:32:18.782Z,97.36
2023-05-05T04:33:18.779Z,98.09
2023-05-05T04:34:18.739Z,97.27
2023-05-05T04:35:18.740Z,97.44
2023-05-05T04:36:18.741Z,94.39
2023-05-05T04:37:18.726Z,94.92
2023-05-05T04:38:18.756Z,97.02
2023-05-05T04:39:18.734Z,96.46
2023-05-05T04:40:18.748Z,95.93
2023-05-05T04:41:18.730Z,96.59
2023-05-05T04:42:18.697Z,97.32
2023-05-05T04:43:18.705Z,97.17
2023-05-05T04:44:18.685Z,94.59
2023-05-05T04:45:18.695Z,96.06
2023-05-05T04:46:18.702Z,96.15
2023-05-05T04:47:18.654Z,95.78
2023-05-05T04:48:18.682Z,95.76
2023-05-05T04:49:18.669Z,94.68
2023-05-05T04:50:18.684Z,91.86
2023-05-05T04:51:18.673Z,94.59
2023-05-05T04:52:18.612Z,95.06
2023-05-05T04:53:18.605Z,96.64
2023-05-05T04:54:18.616Z,96.29
2023-05-05T04:55:18.656Z,97.20
2023-05-05T04:56:18.632Z,99.95
2023-05-05T04:57:18.601Z,101.38
2023-05-05T04:58:18.607Z,100.54
2023-05-05T04:59:18.629Z,102.41
2023-05-05T05:00:18.578Z,102.96
2023-05-05T05:01:18.589Z,104.18
2023-05-05T05:02:18.590Z,104.68
2023-05-05T05:03:18.645Z,104.88
2023-05-05T05:04:18.720Z,104.90
2023-05-05T05:05:18.540Z,103.20
2023-05-05T05:06:18.558Z,104.93
2023-05-05T05:07:18.536Z,101.63
2023-05-05T05:08:18.503Z,101.27
2023-05-05T05:09:18.485Z,102.71
2023-05-05T05:10:18.493Z,102.32
2023-05-05T05:11:18.476Z,100.74
2023-05-05T05:12:18.492Z,102.21
2023-05-05T05:13:18.690Z,104.57
2023-05-05T05:14:18.493Z,104.21
2023-05-05T05:15:18.478Z,104.29
2023-05-05T05:16:18.533Z,106.12
2023-05-05T05:17:18.489Z,104.13
2023-05-05T05:18:18.469Z,106.30
2023-05-05T05:19:18.453Z,105.79
2023-05-05T05:20:18.439Z,104.01
2023-05-05T05:21:18.413Z,109.04
2023-05-05T05:22:18.432Z,108.63
2023-05-05T05:23:19.389Z,108.22
2023-05-05T05:24:18.416Z,106.45
2023-05-05T05:25:18.385Z,108.85
2023-05-05T05:26:18.389Z,108.63
2023-05-05T05:27:18.398Z,105.02
2023-05-05T05:28:18.373Z,105.81
2023-05-05T05:29:18.353Z,108.06
2023-05-05T05:30:18.341Z,108.78
2023-05-05T05:31:18.359Z,108.19
2023-05-05T05:32:18.372Z,109.17
2023-05-05T05:33:18.325Z,108.99
2023-05-05T05:34:18.333Z,109.43
2023-05-05T05:35:18.337Z,109.94
2023-05-05T05:36:18.303Z,111.33
2023-05-05T05:37:18.284Z,126.45
2023-05-05T05:38:18.312Z,128.35
2023-05-05T05:39:18.291Z,123.99
2023-05-05T05:40:18.323Z,120.76
2023-05-05T05:41:18.284Z,119.15
2023-05-05T05:42:18.320Z,120.21
2023-05-05T05:43:18.291Z,120.73
2023-05-05T05:44:18.232Z,122.24
2023-05-05T05:45:18.262Z,123.57
2023-05-05T05:46:18.276Z,128.42
2023-05-05T05:47:18.240Z,127.65
2023-05-05T05:48:18.218Z,131.58
2023-05-05T05:49:18.230Z,131.76
2023-05-05T05:50:18.208Z,138.96
2023-05-05T05:51:18.217Z,136.46
2023-05-05T05:52:18.192Z,141.71
2023-05-05T05:53:18.179Z,147.05
2023-05-05T05:54:18.183Z,144.35
2023-05-05T05:55:18.254Z,151.24
2023-05-05T05:56:18.167Z,153.74
2023-05-05T05:57:18.142Z,154.76
2023-05-05T05:58:18.178Z,151.46
2023-05-05T05:59:18.158Z,152.98
2023-05-05T06:00:18.158Z,148.64
2023-05-05T06:01:18.154Z,146.95
2023-05-05T06:02:18.188Z,147.80
2023-05-05T06:03:18.217Z,152.22
2023-05-05T06:04:18.173Z,151.48
2023-05-05T06:05:18.172Z,153.68
2023-05-05T06:06:18.417Z,153.93
2023-05-05T06:07:18.224Z,152.75
2023-05-05T06:08:18.246Z,153.43
2023-05-05T06:09:18.285Z,150.41
2023-05-05T06:10:26.500Z,150.99
2023-05-05T06:11:19.306Z,151.15
2023-05-05T06:12:18.277Z,151.44
2023-05-05T06:13:18.313Z,153.01
2023-05-05T06:14:19.948Z,153.03
2023-05-05T06:15:18.258Z,154.33
2023-05-05T06:16:18.269Z,153.13
2023-05-05T06:17:18.291Z,153.42
2023-05-05T06:18:18.268Z,150.99
2023-05-05T06:19:18.249Z,152.73
2023-05-05T06:20:18.237Z,144.11
2023-05-05T06:21:18.220Z,147.75
2023-05-05T06:22:18.251Z,148.22
2023-05-05T06:23:18.207Z,148.37
2023-05-05T06:24:18.175Z,149.35
2023-05-05T06:25:18.213Z,148.17
2023-05-05T06:26:18.153Z,148.52
2023-05-05T06:27:18.386Z,150.00
2023-05-05T06:28:18.189Z,145.91
2023-05-05T06:29:18.178Z,146.84
2023-05-05T06:30:18.155Z,147.03
2023-05-05T06:31:18.220Z,144.08
2023-05-05T06:32:18.156Z,143.53
2023-05-05T06:33:18.159Z,139.85
2023-05-05T06:34:18.164Z,137.29
2023-05-05T06:35:18.193Z,136.79
2023-05-05T06:36:18.228Z,133.16
2023-05-05T06:37:18.604Z,131.10
2023-05-05T06:38:18.193Z,129.03
2023-05-05T06:39:18.196Z,125.75
2023-05-05T06:40:18.197Z,128.27
2023-05-05T06:41:18.231Z,128.19
2023-05-05T06:42:18.262Z,124.19
2023-05-05T06:43:18.205Z,124.46
2023-05-05T06:44:18.193Z,124.05
2023-05-05T06:45:18.192Z,121.13
2023-05-05T06:46:18.181Z,122.56
2023-05-05T06:47:18.432Z,119.51
2023-05-05T06:48:18.254Z,118.85
2023-05-05T06:49:18.198Z,120.88
2023-05-05T06:50:18.206Z,126.21
2023-05-05T06:51:18.151Z,125.98
2023-05-05T06:52:18.192Z,134.93
2023-05-05T06:53:18.215Z,138.98
2023-05-05T06:54:18.244Z,149.30
2023-05-05T06:55:18.276Z,153.44
2023-05-05T06:56:18.333Z,155.06
2023-05-05T06:57:18.385Z,157.31
2023-05-05T06:58:18.357Z,156.72
2023-05-05T06:59:18.430Z,155.84
2023-05-05T07:00:18.482Z,158.26
2023-05-05T07:01:18.670Z,162.07
2023-05-05T07:02:18.626Z,159.73
2023-05-05T07:03:18.764Z,161.64
2023-05-05T07:04:18.998Z,146.70
2023-05-05T07:05:18.798Z,137.02
2023-05-05T07:06:18.842Z,125.24
2023-05-05T07:07:18.921Z,114.46
2023-05-05T07:08:19.038Z,88.33
2023-05-05T07:09:19.012Z,64.42
2023-05-05T07:10:19.048Z,61.45
2023-05-05T07:11:19.035Z,41.95
2023-05-05T07:12:19.090Z,52.71
2023-05-05T07:13:19.101Z,35.77
2023-05-05T07:14:19.592Z,37.49
2023-05-05T07:15:28.098Z,45.12
2023-05-05T07:16:20.125Z,45.37
2023-05-05T07:17:19.097Z,45.86
2023-05-05T07:18:19.066Z,46.59
2023-05-05T07:19:19.101Z,47.68
2023-05-05T07:20:19.240Z,45.35
2023-05-05T07:21:19.038Z,34.21
2023-05-05T07:22:19.086Z,38.42
2023-05-05T07:23:19.058Z,30.22
2023-05-05T07:24:19.033Z,29.69
2023-05-05T07:25:19.008Z,24.38
2023-05-05T07:26:19.046Z,37.93
2023-05-05T07:27:19.045Z,47.88
2023-05-05T07:28:19.009Z,58.30
2023-05-05T07:29:19.016Z,49.58
2023-05-05T07:30:19.458Z,38.73
2023-05-05T07:31:19.008Z,27.05
2023-05-05T07:32:19.066Z,18.83
2023-05-05T07:33:19.007Z,24.86
2023-05-05T07:34:18.989Z,25.71
2023-05-05T07:35:19.039Z,29.76
2023-05-05T07:36:19.241Z,31.76
2023-05-05T07:37:19.459Z,24.59
2023-05-05T07:38:19.085Z,30.47
2023-05-05T07:39:22.883Z,23.11
2023-05-05T07:40:19.090Z,23.40
2023-05-05T07:41:19.074Z,5.11
2023-05-05T07:42:19.447Z,0.00
2023-05-05T07:43:19.059Z,0.00
2023-05-05T07:44:19.084Z,0.00
2023-05-05T07:45:19.092Z,0.00
2023-05-05T07:46:19.286Z,0.00
2023-05-05T07:47:19.482Z,0.00
2023-05-05T07:48:19.038Z,0.00
2023-05-05T07:49:19.061Z,0.00
2023-05-05T07:50:19.050Z,0.00
2023-05-05T07:51:19.002Z,0.00
2023-05-05T07:52:21.477Z,0.00
2023-05-05T07:53:20.196Z,0.09
2023-05-05T07:54:19.001Z,0.84
2023-05-05T07:55:18.999Z,3.10
2023-05-05T07:56:19.893Z,7.15
2023-05-05T07:57:19.165Z,8.13
2023-05-05T07:58:19.218Z,13.55
2023-05-05T07:59:19.223Z,23.49
2023-05-05T08:00:19.294Z,28.06
2023-05-05T08:01:19.371Z,33.83
2023-05-05T08:02:19.368Z,32.37
2023-05-05T08:03:19.372Z,26.90
2023-05-05T08:04:19.389Z,27.93
2023-05-05T08:05:19.392Z,31.63
2023-05-05T08:06:19.411Z,34.41
2023-05-05T08:07:19.436Z,39.93
2023-05-05T08:08:19.583Z,35.08
2023-05-05T08:09:19.516Z,31.36
2023-05-05T08:10:19.495Z,40.09
2023-05-05T08:11:19.529Z,37.38
2023-05-05T08:12:19.566Z,42.92
2023-05-05T08:13:19.644Z,40.75
2023-05-05T08:14:19.566Z,44.89
2023-05-05T08:15:19.563Z,56.96
2023-05-05T08:16:19.609Z,57.10
2023-05-05T08:17:19.573Z,67.92
2023-05-05T08:18:19.577Z,78.48
2023-05-05T08:19:28.829Z,84.79
2023-05-05T08:20:20.596Z,80.78
2023-05-05T08:21:19.551Z,82.79
2023-05-05T08:22:19.544Z,85.71
2023-05-05T08:23:19.570Z,82.62
2023-05-05T08:24:19.610Z,82.53
2023-05-05T08:25:19.522Z,78.15
2023-05-05T08:26:19.508Z,80.70
2023-05-05T08:27:19.495Z,88.22
2023-05-05T08:28:19.614Z,88.70
2023-05-05T08:29:19.485Z,93.62
2023-05-05T08:30:19.490Z,94.85
2023-05-05T08:31:19.560Z,94.31
2023-05-05T08:32:19.572Z,93.74
2023-05-05T08:33:19.550Z,82.74
2023-05-05T08:34:19.593Z,68.93
2023-05-05T08:35:19.599Z,67.57
2023-05-05T08:36:19.641Z,58.10
2023-05-05T08:37:19.659Z,66.08
2023-05-05T08:38:19.659Z,76.90
2023-05-05T08:39:19.666Z,91.69
2023-05-05T08:40:19.754Z,76.22
2023-05-05T08:41:19.829Z,79.71
2023-05-05T08:42:35.657Z,86.54
2023-05-05T08:43:20.711Z,87.06
2023-05-05T08:44:19.690Z,78.93
2023-05-05T08:45:19.668Z,72.02
2023-05-05T08:46:19.701Z,81.01
2023-05-05T08:47:20.025Z,91.51
2023-05-05T08:48:19.764Z,101.13
2023-05-05T08:49:19.847Z,113.37
2023-05-05T08:50:19.915Z,118.76
2023-05-05T08:51:19.984Z,121.64
2023-05-05T08:52:20.507Z,127.58
2023-05-05T08:53:20.070Z,109.78
2023-05-05T08:54:20.097Z,92.47
2023-05-05T08:55:20.174Z,75.55
2023-05-05T08:56:20.396Z,59.27
2023-05-05T08:57:20.293Z,74.87
2023-05-05T08:58:20.363Z,83.67
2023-05-05T08:59:20.455Z,106.99
2023-05-05T09:00:20.551Z,118.51
2023-05-05T09:01:20.589Z,125.95
2023-05-05T09:02:20.643Z,133.02
2023-05-05T09:03:20.667Z,137.40
2023-05-05T09:04:20.709Z,144.40
2023-05-05T09:05:20.759Z,148.88
2023-05-05T09:06:20.784Z,152.49
2023-05-05T09:07:20.968Z,154.00
2023-05-05T09:08:20.833Z,158.80
2023-05-05T09:09:20.893Z,164.02
2023-05-05T09:10:20.927Z,166.78
2023-05-05T09:11:20.932Z,169.46
2023-05-05T09:12:20.999Z,171.16
2023-05-05T09:13:21.034Z,171.87
2023-05-05T09:14:20.972Z,176.21
2023-05-05T09:15:20.991Z,177.93
2023-05-05T09:16:21.009Z,181.30
2023-05-05T09:17:21.051Z,183.32
2023-05-05T09:18:21.006Z,185.24
2023-05-05T09:19:21.014Z,186.38
2023-05-05T09:20:21.065Z,188.92
2023-05-05T09:21:21.014Z,190.90
2023-05-05T09:22:21.507Z,192.77
2023-05-05T09:23:21.087Z,193.10
2023-05-05T09:24:21.055Z,195.17
2023-05-05T09:25:21.070Z,196.25
2023-05-05T09:26:21.044Z,198.93
2023-05-05T09:27:21.024Z,202.33
2023-05-05T09:28:21.626Z,203.28
2023-05-05T09:29:21.048Z,205.42
2023-05-05T09:30:21.159Z,206.90
2023-05-05T09:31:21.060Z,209.72
2023-05-05T09:32:21.065Z,212.22
2023-05-05T09:33:21.057Z,212.64
2023-05-05T09:34:21.051Z,212.77
2023-05-05T09:35:21.100Z,214.47
2023-05-05T09:36:21.147Z,215.71
2023-05-05T09:37:21.177Z,217.12
2023-05-05T09:38:21.255Z,217.94
2023-05-05T09:39:21.290Z,219.90
2023-05-05T09:40:21.449Z,221.50
2023-05-05T09:41:21.389Z,222.31
2023-05-05T09:42:21.522Z,224.00
2023-05-05T09:43:22.063Z,228.25
2023-05-05T09:44:21.702Z,230.69
2023-05-05T09:45:21.645Z,229.45
2023-05-05T09:46:21.661Z,229.19
2023-05-05T09:47:29.560Z,230.86
2023-05-05T09:48:23.000Z,227.71
2023-05-05T09:49:21.667Z,217.00
2023-05-05T09:50:22.402Z,216.88
2023-05-05T09:51:21.695Z,215.47
2023-05-05T09:52:21.703Z,214.59
2023-05-05T09:53:21.668Z,214.11
2023-05-05T09:54:21.649Z,213.82
2023-05-05T09:55:21.660Z,212.27
2023-05-05T09:56:21.652Z,211.20
2023-05-05T09:57:21.624Z,209.41
2023-05-05T09:58:22.001Z,210.07
2023-05-05T09:59:21.631Z,209.99
2023-05-05T10:00:21.810Z,209.82
2023-05-05T10:01:21.624Z,212.28
2023-05-05T10:02:21.573Z,212.33
2023-05-05T10:03:21.974Z,213.04
2023-05-05T10:04:21.614Z,209.84
2023-05-05T10:05:21.603Z,209.11
2023-05-05T10:06:21.594Z,209.87
2023-05-05T10:07:21.585Z,211.53
2023-05-05T10:08:21.980Z,213.38
2023-05-05T10:09:21.572Z,212.45
2023-05-05T10:10:21.540Z,214.15
2023-05-05T10:11:21.549Z,213.68
2023-05-05T10:12:21.542Z,214.51
2023-05-05T10:13:21.580Z,214.52
2023-05-05T10:14:21.546Z,214.60
2023-05-05T10:15:21.587Z,214.34
2023-05-05T10:16:21.571Z,215.65
2023-05-05T10:17:21.506Z,217.96
2023-05-05T10:18:21.532Z,217.82
2023-05-05T10:19:21.552Z,217.18
2023-05-05T10:20:21.440Z,217.39
2023-05-05T10:21:21.469Z,216.90
2023-05-05T10:22:21.476Z,218.53
2023-05-05T10:23:21.498Z,217.52
2023-05-05T10:24:21.460Z,217.96
2023-05-05T10:25:21.448Z,217.75
2023-05-05T10:26:21.472Z,217.34
2023-05-05T10:27:21.465Z,218.71
2023-05-05T10:28:21.476Z,218.07
2023-05-05T10:29:21.505Z,218.16
2023-05-05T10:30:21.547Z,217.68
2023-05-05T10:31:26.354Z,216.30
2023-05-05T10:32:50.897Z,216.36
2023-05-05T10:34:21.519Z,216.41
2023-05-05T10:35:21.503Z,216.30
2023-05-05T10:36:21.588Z,213.88
2023-05-05T10:37:21.482Z,210.55
2023-05-05T10:38:21.457Z,205.67
2023-05-05T10:39:21.443Z,198.57
2023-05-05T10:40:21.454Z,204.00
2023-05-05T10:41:21.455Z,204.42
2023-05-05T10:42:21.435Z,208.49
2023-05-05T10:43:21.432Z,203.93
2023-05-05T10:44:21.420Z,202.32
2023-05-05T10:45:21.452Z,203.29
2023-05-05T10:46:21.442Z,210.10
2023-05-05T10:47:21.408Z,214.32
2023-05-05T10:48:21.546Z,207.02
2023-05-05T10:49:21.386Z,201.25
2023-05-05T10:50:21.379Z,191.67
2023-05-05T10:51:31.043Z,188.56
2023-05-05T10:52:22.368Z,188.72
2023-05-05T10:53:21.370Z,188.65
2023-05-05T10:54:21.436Z,181.89
2023-05-05T10:55:21.399Z,184.67
2023-05-05T10:56:21.313Z,188.65
2023-05-05T10:57:21.354Z,192.09
2023-05-05T10:58:21.345Z,187.49
2023-05-05T10:59:21.306Z,197.44
2023-05-05T11:00:21.321Z,200.09
2023-05-05T11:01:21.418Z,205.96
2023-05-05T11:02:21.464Z,208.97
2023-05-05T11:03:21.524Z,203.32
2023-05-05T11:04:21.585Z,202.99
2023-05-05T11:05:21.664Z,209.32
2023-05-05T11:06:21.635Z,208.08
2023-05-05T11:07:21.640Z,207.84
2023-05-05T11:08:21.669Z,207.08
2023-05-05T11:09:21.691Z,199.84
2023-05-05T11:10:21.804Z,197.55
2023-05-05T11:11:21.844Z,185.06
2023-05-05T11:12:21.881Z,188.93
2023-05-05T11:13:21.952Z,190.50
2023-05-05T11:14:21.911Z,196.98
2023-05-05T11:15:21.958Z,205.81
2023-05-05T11:16:22.033Z,212.07
2023-05-05T11:17:22.022Z,213.37
2023-05-05T11:18:22.057Z,211.51
2023-05-05T11:19:22.061Z,216.26
2023-05-05T11:20:22.217Z,221.89
2023-05-05T11:21:22.133Z,223.05
2023-05-05T11:22:22.099Z,230.09
2023-05-05T11:23:22.178Z,230.84
2023-05-05T11:24:22.140Z,234.08
2023-05-05T11:25:22.154Z,236.95
2023-05-05T11:26:22.171Z,243.93
2023-05-05T11:27:22.174Z,249.21
2023-05-05T11:28:22.571Z,250.59
2023-05-05T11:29:22.191Z,250.78
2023-05-05T11:30:22.200Z,249.43
2023-05-05T11:31:22.278Z,244.65
2023-05-05T11:32:22.225Z,238.80
2023-05-05T11:33:22.544Z,239.29
2023-05-05T11:34:22.214Z,243.09
2023-05-05T11:35:22.216Z,246.52
2023-05-05T11:36:22.300Z,249.93
2023-05-05T11:37:22.304Z,250.26
2023-05-05T11:38:22.243Z,250.00
2023-05-05T11:39:22.293Z,250.00
2023-05-05T11:40:22.272Z,249.04
2023-05-05T11:41:22.310Z,249.88
2023-05-05T11:42:22.362Z,241.01
2023-05-05T11:43:22.513Z,235.90
2023-05-05T11:44:22.425Z,228.58
2023-05-05T11:45:22.419Z,234.02
2023-05-05T11:46:22.552Z,238.78
2023-05-05T11:47:22.533Z,242.12
2023-05-05T11:48:22.570Z,240.53
2023-05-05T11:49:22.617Z,238.90
2023-05-05T11:50:22.694Z,240.71
2023-05-05T11:51:22.677Z,239.52
2023-05-05T11:52:22.808Z,221.28
2023-05-05T11:53:22.779Z,221.52
2023-05-05T11:54:22.815Z,225.25
2023-05-05T11:55:22.892Z,231.77
2023-05-05T11:56:22.927Z,237.77
2023-05-05T11:57:22.985Z,238.85
2023-05-05T11:58:22.994Z,241.70
2023-05-05T11:59:23.049Z,243.00
2023-05-05T12:00:23.125Z,243.17
2023-05-05T12:01:23.165Z,242.81
2023-05-05T12:02:24.111Z,242.51
2023-05-05T12:03:23.412Z,239.75
2023-05-05T12:04:23.336Z,242.11
2023-05-05T12:05:23.316Z,243.72
2023-05-05T12:06:23.338Z,244.06
2023-05-05T12:07:23.425Z,243.50
2023-05-05T12:08:23.515Z,242.85
2023-05-05T12:09:23.485Z,240.60
2023-05-05T12:10:23.544Z,237.86
2023-05-05T12:11:23.595Z,238.52
2023-05-05T12:12:23.646Z,237.36
2023-05-05T12:13:23.724Z,235.75
2023-05-05T12:14:23.755Z,234.14
2023-05-05T12:15:23.776Z,234.60
2023-05-05T12:16:23.886Z,234.18
2023-05-05T12:17:23.943Z,234.23
2023-05-05T12:18:23.926Z,232.07
2023-05-05T12:19:23.953Z,229.59
2023-05-05T12:20:24.034Z,228.49
2023-05-05T12:21:24.049Z,226.90
2023-05-05T12:22:24.152Z,227.86
2023-05-05T12:23:24.144Z,228.33
2023-05-05T12:24:24.156Z,229.12
2023-05-05T12:25:24.219Z,230.15
2023-05-05T12:26:24.251Z,230.76
2023-05-05T12:27:24.384Z,229.95
2023-05-05T12:28:24.369Z,226.77
2023-05-05T12:29:24.405Z,222.60
2023-05-05T12:30:24.451Z,222.17
2023-05-05T12:31:24.495Z,224.05
2023-05-05T12:32:24.562Z,226.07
2023-05-05T12:33:24.577Z,225.42
2023-05-05T12:34:24.607Z,224.53
2023-05-05T12:35:24.637Z,220.94
2023-05-05T12:36:24.725Z,214.63
2023-05-05T12:37:24.746Z,211.17
2023-05-05T12:38:24.810Z,214.10
2023-05-05T12:39:24.836Z,216.71
2023-05-05T12:40:24.877Z,215.73
2023-05-05T12:41:24.933Z,213.36
2023-05-05T12:42:24.950Z,212.14